Time;durP1;ratioP1;P1;durP2;ratioP2;P2;SDS_P1;SDS_P2;PMS_P1;PMS_P2;Temp;Humidity;BMP_temperature;BMP_pressure;BME280_temperature;BME280_humidity;BME280_pressure;Samples;Min_cycle;Max_cycle;Signal;HPM_P1;HPM_P2
2021/06/14 00:00:24;;;;;;;3.80;3.40;;;19.70;87.60;;;;;;5114932;28;20077;-63
2021/06/14 00:02:51;;;;;;;4.28;3.45;;;19.60;87.70;;;;;;5113484;28;20422;-63
2021/06/14 00:05:29;;;;;;;4.55;3.60;;;19.60;88.00;;;;;;5108742;28;20031;-63
2021/06/14 00:07:55;;;;;;;4.35;3.58;;;19.70;88.10;;;;;;5106262;28;20032;-62
2021/06/14 00:10:23;;;;;;;4.13;3.53;;;19.70;89.10;;;;;;5105851;28;20120;-63
2021/06/14 00:12:49;;;;;;;4.22;3.25;;;19.70;88.40;;;;;;5104106;28;20119;-63
2021/06/14 00:15:15;;;;;;;4.40;3.58;;;19.70;88.30;;;;;;5112471;28;20055;-63
2021/06/14 00:17:40;;;;;;;4.35;3.67;;;19.70;88.50;;;;;;5114098;28;20047;-63
2021/06/14 00:20:09;;;;;;;4.28;3.30;;;19.70;88.60;;;;;;5113058;28;20026;-63
2021/06/14 00:22:34;;;;;;;3.92;3.25;;;19.70;88.60;;;;;;5111959;28;20031;-63
2021/06/14 00:25:00;;;;;;;4.07;3.67;;;19.60;88.40;;;;;;5112687;28;20020;-63
2021/06/14 00:27:26;;;;;;;5.68;3.50;;;19.60;88.40;;;;;;5106096;28;20059;-63
2021/06/14 00:29:51;;;;;;;5.07;3.20;;;19.60;88.50;;;;;;5111060;28;20038;-63
2021/06/14 00:32:17;;;;;;;3.78;3.25;;;19.60;88.80;;;;;;5100805;28;20027;-63
2021/06/14 00:34:43;;;;;;;3.90;3.50;;;19.60;88.80;;;;;;5113562;28;20036;-63
2021/06/14 00:37:08;;;;;;;3.72;3.13;;;19.60;88.50;;;;;;5110118;28;20028;-63
2021/06/14 00:39:36;;;;;;;3.83;3.22;;;19.60;88.70;;;;;;5100369;28;20103;-63
2021/06/14 00:42:02;;;;;;;4.13;3.47;;;19.60;89.00;;;;;;5111799;28;20028;-63
2021/06/14 00:44:27;;;;;;;4.25;3.78;;;19.60;89.30;;;;;;5104915;28;20055;-63
2021/06/14 00:46:53;;;;;;;4.57;3.30;;;19.60;89.60;;;;;;5111411;28;20059;-63
2021/06/14 00:49:19;;;;;;;3.97;3.58;;;19.50;89.50;;;;;;5112481;28;20024;-63
2021/06/14 00:51:45;;;;;;;4.15;3.65;;;19.60;89.50;;;;;;5112029;28;20024;-63
2021/06/14 00:54:10;;;;;;;4.00;3.30;;;19.50;89.50;;;;;;5113768;28;20041;-63
2021/06/14 00:56:36;;;;;;;3.65;3.28;;;19.50;89.60;;;;;;5112092;28;20024;-63
2021/06/14 00:59:02;;;;;;;4.10;3.22;;;19.50;90.00;;;;;;5113574;28;20092;-63
2021/06/14 01:01:28;;;;;;;4.05;3.42;;;19.50;89.70;;;;;;5103537;28;20453;-63
2021/06/14 01:03:53;;;;;;;4.90;3.63;;;19.50;89.80;;;;;;5092166;28;20387;-63
2021/06/14 01:06:19;;;;;;;4.93;3.75;;;19.50;90.00;;;;;;5091896;28;20024;-63
2021/06/14 01:08:50;;;;;;;4.50;3.72;;;19.50;90.10;;;;;;5108563;28;20024;-63
2021/06/14 01:11:55;;;;;;;5.18;3.35;;;19.50;90.00;;;;;;5113122;28;20030;-63
2021/06/14 01:14:37;;;;;;;5.50;3.78;;;19.50;89.90;;;;;;5110681;28;20071;-63
2021/06/14 01:17:17;;;;;;;4.22;3.60;;;19.50;90.10;;;;;;5112414;28;20031;-63
2021/06/14 01:20:01;;;;;;;4.70;3.88;;;19.50;90.20;;;;;;5108918;28;20035;-63
2021/06/14 01:22:55;;;;;;;4.20;3.80;;;19.50;90.30;;;;;;5110012;28;20359;-63
2021/06/14 01:25:32;;;;;;;4.60;3.75;;;19.50;90.10;;;;;;5111894;28;20024;-63
2021/06/14 01:28:00;;;;;;;4.38;3.95;;;19.60;90.20;;;;;;5112732;28;20034;-63
2021/06/14 01:30:31;;;;;;;4.22;3.70;;;19.60;90.30;;;;;;5112177;28;20027;-63
2021/06/14 01:32:58;;;;;;;4.22;3.30;;;19.60;90.30;;;;;;5103669;28;20036;-63
2021/06/14 01:35:49;;;;;;;4.03;3.47;;;19.60;90.50;;;;;;5102748;28;20042;-63
2021/06/14 01:38:17;;;;;;;5.73;3.37;;;19.60;90.30;;;;;;5061667;28;20135;-63
2021/06/14 01:40:46;;;;;;;4.88;3.78;;;19.60;90.40;;;;;;5109243;28;20088;-63
2021/06/14 01:43:15;;;;;;;4.38;3.30;;;19.60;90.70;;;;;;5105600;28;20051;-63
2021/06/14 01:45:46;;;;;;;4.45;3.13;;;19.60;90.30;;;;;;5109997;28;20024;-63
2021/06/14 01:48:12;;;;;;;3.35;3.05;;;19.60;90.40;;;;;;5111003;28;20081;-63
2021/06/14 01:50:39;;;;;;;3.95;3.55;;;19.60;90.20;;;;;;5110338;28;20036;-63
2021/06/14 01:53:05;;;;;;;5.88;3.95;;;19.60;90.30;;;;;;5097735;28;20431;-63
2021/06/14 01:55:33;;;;;;;3.78;3.25;;;19.60;90.20;;;;;;5111413;28;20019;-63
2021/06/14 01:57:59;;;;;;;4.60;3.25;;;19.60;90.10;;;;;;5111598;28;20024;-63
2021/06/14 02:00:25;;;;;;;5.10;3.55;;;19.60;90.20;;;;;;5115368;28;20034;-63
2021/06/14 02:02:52;;;;;;;3.85;3.40;;;19.60;90.20;;;;;;5115911;28;20056;-63
2021/06/14 02:05:21;;;;;;;5.15;3.50;;;19.60;90.20;;;;;;5116964;28;20062;-63
2021/06/14 02:07:47;;;;;;;4.43;3.60;;;19.60;90.30;;;;;;5107271;28;20050;-63
2021/06/14 02:10:13;;;;;;;3.50;3.20;;;19.60;90.30;;;;;;5097889;28;20047;-63
2021/06/14 02:12:41;;;;;;;4.32;3.10;;;19.70;90.20;;;;;;5106357;28;20035;-63
2021/06/14 02:15:08;;;;;;;4.68;3.70;;;19.70;90.30;;;;;;5114552;28;20042;-63
2021/06/14 02:17:36;;;;;;;5.03;3.58;;;19.70;90.30;;;;;;5115693;28;20462;-63
2021/06/14 02:20:05;;;;;;;4.47;3.50;;;19.70;90.30;;;;;;5105990;28;20375;-63
2021/06/14 02:22:31;;;;;;;4.35;3.53;;;19.70;90.30;;;;;;5105647;28;20032;-63
2021/06/14 02:24:56;;;;;;;4.75;3.22;;;19.70;90.20;;;;;;5115742;28;20023;-63
2021/06/14 02:27:22;;;;;;;3.72;3.20;;;19.70;90.10;;;;;;5107732;28;20055;-63
2021/06/14 02:29:48;;;;;;;3.50;3.05;;;19.70;90.10;;;;;;5098159;28;20035;-63
2021/06/14 02:32:14;;;;;;;6.05;3.60;;;19.70;90.10;;;;;;5102548;28;20084;-63
2021/06/14 02:34:43;;;;;;;3.45;3.15;;;19.70;90.10;;;;;;5116372;28;20674;-63
2021/06/14 02:37:15;;;;;;;3.70;3.40;;;19.80;90.10;;;;;;5115276;28;20031;-63
2021/06/14 02:39:41;;;;;;;3.83;2.80;;;19.80;90.10;;;;;;5116492;28;20379;-63
2021/06/14 02:42:08;;;;;;;4.13;3.00;;;19.80;90.00;;;;;;5115593;28;20028;-63
2021/06/14 02:44:34;;;;;;;4.53;3.05;;;19.80;89.80;;;;;;5097984;28;20483;-63
2021/06/14 02:47:04;;;;;;;5.78;3.25;;;19.90;90.00;;;;;;5100256;28;20424;-63
2021/06/14 02:49:31;;;;;;;5.55;3.30;;;19.90;90.00;;;;;;5116455;28;20012;-63
2021/06/14 02:51:58;;;;;;;4.18;3.30;;;20.00;89.80;;;;;;5115336;28;20103;-63
2021/06/14 02:54:31;;;;;;;4.07;3.38;;;20.00;89.60;;;;;;5115144;28;20020;-63
2021/06/14 02:56:59;;;;;;;4.05;3.20;;;20.10;89.40;;;;;;5111163;28;20380;-63
2021/06/14 02:59:27;;;;;;;4.25;3.50;;;20.20;89.00;;;;;;5094377;28;20111;-63
2021/06/14 03:01:55;;;;;;;3.03;2.72;;;20.20;88.70;;;;;;5097569;28;20031;-63
2021/06/14 03:04:21;;;;;;;4.32;3.08;;;20.30;88.80;;;;;;5115845;28;20027;-63
2021/06/14 03:06:51;;;;;;;3.00;2.78;;;20.30;88.80;;;;;;5113655;27;20023;-63
2021/06/14 03:09:18;;;;;;;3.35;2.95;;;20.30;88.20;;;;;;5109717;28;20353;-63
2021/06/14 03:11:45;;;;;;;3.22;2.92;;;20.40;88.20;;;;;;5106811;28;20034;-63
2021/06/14 03:14:15;;;;;;;3.83;3.30;;;20.40;87.90;;;;;;5115677;28;20031;-63
2021/06/14 03:16:42;;;;;;;4.95;3.05;;;20.50;87.90;;;;;;5112753;28;20019;-63
2021/06/14 03:19:09;;;;;;;3.53;3.20;;;20.50;87.60;;;;;;5104662;28;20075;-63
2021/06/14 03:21:36;;;;;;;4.72;3.38;;;20.50;88.00;;;;;;5114796;28;20103;-63
2021/06/14 03:24:02;;;;;;;4.03;3.28;;;20.60;88.40;;;;;;5115501;28;20052;-63
2021/06/14 03:26:31;;;;;;;4.78;3.25;;;20.80;88.40;;;;;;5113907;28;20383;-63
2021/06/14 03:28:58;;;;;;;4.15;3.30;;;20.80;88.00;;;;;;5114009;28;20467;-63
2021/06/14 03:31:27;;;;;;;4.25;3.20;;;20.90;88.10;;;;;;5113403;28;20047;-63
2021/06/14 03:33:53;;;;;;;3.45;3.15;;;21.10;89.00;;;;;;5105020;28;20043;-63
2021/06/14 03:36:22;;;;;;;3.55;3.17;;;21.50;89.20;;;;;;5094886;28;20468;-63
2021/06/14 03:38:50;;;;;;;4.85;3.45;;;21.80;88.10;;;;;;5094175;28;20047;-63
2021/06/14 03:41:17;;;;;;;3.95;3.22;;;22.10;87.40;;;;;;5103349;28;20371;-64
2021/06/14 03:43:43;;;;;;;3.47;3.17;;;22.50;86.60;;;;;;5108129;28;20467;-64
2021/06/14 03:46:08;;;;;;;3.67;3.30;;;23.10;85.40;;;;;;5103695;28;20080;-64
2021/06/14 03:48:34;;;;;;;3.58;3.10;;;23.80;83.60;;;;;;5112279;28;20076;-64
2021/06/14 03:51:01;;;;;;;3.78;2.88;;;24.50;80.50;;;;;;5108811;28;20121;-64
2021/06/14 03:53:32;;;;;;;4.00;2.90;;;25.30;78.80;;;;;;5108942;28;20055;-64
2021/06/14 03:56:06;;;;;;;2.75;2.55;;;26.00;76.10;;;;;;5114144;28;20031;-64
2021/06/14 03:58:32;;;;;;;3.28;2.83;;;26.80;75.00;;;;;;5113873;27;20032;-64
2021/06/14 04:00:59;;;;;;;2.97;2.78;;;27.40;71.50;;;;;;5113374;28;20020;-64
2021/06/14 04:03:27;;;;;;;3.20;2.88;;;27.90;69.50;;;;;;5113131;28;20038;-64
2021/06/14 04:05:55;;;;;;;2.90;2.65;;;28.50;68.20;;;;;;5113677;28;20027;-64
2021/06/14 04:08:21;;;;;;;3.15;2.85;;;29.10;66.20;;;;;;5105654;28;20450;-64
2021/06/14 04:10:46;;;;;;;4.22;2.50;;;29.90;64.50;;;;;;5109684;28;20131;-64
2021/06/14 04:13:12;;;;;;;3.53;2.70;;;30.60;62.60;;;;;;5099224;28;20097;-64
2021/06/14 04:15:38;;;;;;;2.83;2.63;;;31.30;60.90;;;;;;5092828;28;20032;-64
2021/06/14 04:18:05;;;;;;;3.17;2.88;;;31.90;59.40;;;;;;5106271;28;20152;-64
2021/06/14 04:20:30;;;;;;;4.03;2.53;;;32.50;58.10;;;;;;5110286;28;20027;-64
2021/06/14 04:22:57;;;;;;;2.67;2.47;;;32.90;56.60;;;;;;5112204;28;20542;-64
2021/06/14 04:25:23;;;;;;;2.72;2.50;;;33.40;55.30;;;;;;5111551;28;20028;-64
2021/06/14 04:27:48;;;;;;;2.60;2.35;;;33.80;54.80;;;;;;5114253;28;20031;-64
2021/06/14 04:30:15;;;;;;;2.53;2.40;;;34.10;54.10;;;;;;5111851;28;20076;-64
2021/06/14 04:32:41;;;;;;;2.70;2.50;;;34.10;52.80;;;;;;5112265;28;20357;-64
2021/06/14 04:35:07;;;;;;;2.92;2.22;;;34.00;51.90;;;;;;5112085;28;20219;-64
2021/06/14 04:37:33;;;;;;;2.55;2.25;;;34.00;52.10;;;;;;5109212;28;20164;-64
2021/06/14 04:40:00;;;;;;;2.95;2.30;;;34.00;51.80;;;;;;5100260;28;20032;-64
2021/06/14 04:42:27;;;;;;;3.00;2.70;;;34.10;51.50;;;;;;5099260;28;20387;-64
2021/06/14 04:44:53;;;;;;;2.97;2.67;;;34.00;51.00;;;;;;5112965;28;20102;-64
2021/06/14 04:47:20;;;;;;;4.32;2.90;;;33.90;50.80;;;;;;5106030;28;20391;-64
2021/06/14 04:49:46;;;;;;;3.40;2.85;;;34.00;51.00;;;;;;5112435;28;20023;-65
2021/06/14 04:52:12;;;;;;;3.20;2.90;;;34.10;50.50;;;;;;5111499;28;20032;-64
2021/06/14 04:54:39;;;;;;;3.00;2.72;;;33.90;50.50;;;;;;5112834;28;20394;-59
2021/06/14 04:57:05;;;;;;;3.30;3.00;;;33.80;51.00;;;;;;5112815;28;20062;-59
2021/06/14 04:59:30;;;;;;;2.60;2.40;;;33.80;50.90;;;;;;5104556;28;20078;-57
2021/06/14 05:01:56;;;;;;;3.78;2.78;;;34.00;51.10;;;;;;5094100;28;20028;-58
2021/06/14 05:04:22;;;;;;;3.65;3.33;;;34.10;50.60;;;;;;5093751;28;20047;-57
2021/06/14 05:06:47;;;;;;;4.70;3.08;;;34.00;50.20;;;;;;5101174;28;20019;-58
2021/06/14 05:09:13;;;;;;;3.75;3.38;;;34.00;50.30;;;;;;5106924;28;20547;-57
2021/06/14 05:11:39;;;;;;;3.90;3.15;;;33.90;49.80;;;;;;5097240;28;20035;-58
2021/06/14 05:14:05;;;;;;;3.90;3.33;;;34.00;50.20;;;;;;5108297;28;20019;-57
2021/06/14 05:16:31;;;;;;;4.82;3.40;;;33.90;49.70;;;;;;5106528;28;20020;-59
2021/06/14 05:18:58;;;;;;;6.57;3.60;;;34.00;49.70;;;;;;5108924;28;20039;-57
2021/06/14 05:21:24;;;;;;;4.28;3.40;;;33.90;48.90;;;;;;5100125;28;20028;-58
2021/06/14 05:23:50;;;;;;;3.60;3.30;;;33.50;48.70;;;;;;5095011;28;20027;-58
2021/06/14 05:26:16;;;;;;;3.85;3.45;;;32.60;49.60;;;;;;5102146;28;20060;-59
2021/06/14 05:28:42;;;;;;;4.80;3.65;;;31.80;50.80;;;;;;5105034;28;20060;-58
2021/06/14 05:31:08;;;;;;;5.18;4.20;;;30.90;51.90;;;;;;5100320;28;20059;-59
2021/06/14 05:33:34;;;;;;;5.38;4.03;;;29.90;53.70;;;;;;5101870;28;20623;-57
2021/06/14 05:36:02;;;;;;;4.82;4.32;;;29.00;55.10;;;;;;5106868;28;20069;-57
2021/06/14 05:38:28;;;;;;;5.57;4.28;;;28.30;56.80;;;;;;5106214;28;20038;-57
2021/06/14 05:40:54;;;;;;;5.05;4.55;;;27.80;58.20;;;;;;5107644;28;20502;-55
2021/06/14 05:43:19;;;;;;;5.88;4.18;;;27.40;59.20;;;;;;5106734;28;20507;-57
2021/06/14 05:45:45;;;;;;;6.40;4.65;;;27.00;60.30;;;;;;5105620;28;20448;-56
2021/06/14 05:48:11;;;;;;;5.40;4.68;;;26.80;61.30;;;;;;5109611;28;20028;-56
2021/06/14 05:50:36;;;;;;;5.60;4.70;;;26.70;62.00;;;;;;5109494;28;20101;-56
2021/06/14 05:53:04;;;;;;;4.85;4.35;;;26.60;62.50;;;;;;5104398;28;20031;-56
2021/06/14 05:55:30;;;;;;;5.53;4.65;;;26.50;62.70;;;;;;5104236;28;20113;-55
2021/06/14 05:57:56;;;;;;;5.82;4.68;;;26.40;63.10;;;;;;5103700;28;20051;-56
2021/06/14 06:00:22;;;;;;;5.32;4.30;;;26.40;63.90;;;;;;5101285;28;20027;-57
2021/06/14 06:02:48;;;;;;;6.05;4.90;;;26.30;64.40;;;;;;5096720;28;21178;-58
2021/06/14 06:05:14;;;;;;;5.75;5.05;;;26.20;64.60;;;;;;5105321;28;20020;-58
2021/06/14 06:07:40;;;;;;;5.68;5.07;;;26.10;65.10;;;;;;5111054;28;20036;-59
2021/06/14 06:10:07;;;;;;;6.70;5.35;;;26.00;65.40;;;;;;5101780;28;20028;-58
2021/06/14 06:12:33;;;;;;;7.75;5.10;;;25.90;66.00;;;;;;5105385;28;20066;-58
2021/06/14 06:15:01;;;;;;;6.47;5.63;;;25.80;66.10;;;;;;5102684;28;20067;-57
2021/06/14 06:17:27;;;;;;;10.65;5.72;;;25.60;66.40;;;;;;5096346;28;20090;-58
2021/06/14 06:19:53;;;;;;;6.22;5.25;;;25.40;67.20;;;;;;5102783;28;20106;-59
2021/06/14 06:22:18;;;;;;;7.72;6.00;;;25.20;67.80;;;;;;5106602;28;20127;-58
2021/06/14 06:24:44;;;;;;;8.35;6.15;;;25.10;68.70;;;;;;5105970;28;20067;-58
2021/06/14 06:27:10;;;;;;;7.57;6.05;;;25.00;69.20;;;;;;5108952;27;21694;-58
2021/06/14 06:29:35;;;;;;;7.70;5.97;;;24.90;69.10;;;;;;5102912;28;20039;-57
2021/06/14 06:32:01;;;;;;;6.90;5.70;;;24.80;69.80;;;;;;5102085;28;20028;-57
2021/06/14 06:34:27;;;;;;;9.25;6.75;;;24.80;70.50;;;;;;5095880;28;20028;-57
2021/06/14 06:36:52;;;;;;;7.60;6.80;;;24.70;70.90;;;;;;5102319;28;20034;-59
2021/06/14 06:39:18;;;;;;;8.55;6.80;;;24.70;71.30;;;;;;5104521;28;20028;-58
2021/06/14 06:41:44;;;;;;;8.30;6.68;;;24.60;71.00;;;;;;5097685;28;20047;-56
2021/06/14 06:44:10;;;;;;;8.57;7.68;;;24.60;71.30;;;;;;5102815;28;20054;-56
2021/06/14 06:46:37;;;;;;;9.35;7.63;;;24.60;71.50;;;;;;5105130;28;20475;-56
2021/06/14 06:49:03;;;;;;;9.52;6.60;;;24.60;71.70;;;;;;5105374;28;20020;-56
2021/06/14 06:51:28;;;;;;;7.22;6.53;;;24.50;71.60;;;;;;5105866;28;20027;-56
2021/06/14 06:54:12;;;;;;;9.38;7.05;;;24.50;72.10;;;;;;5104295;28;20027;-59
2021/06/14 06:56:40;;;;;;;8.52;6.93;;;24.50;72.80;;;;;;5101848;28;20039;-60
2021/06/14 06:59:06;;;;;;;7.20;6.30;;;24.50;73.40;;;;;;5101266;28;20043;-59
2021/06/14 07:01:32;;;;;;;9.60;6.78;;;24.50;73.00;;;;;;5107010;28;20352;-59
2021/06/14 07:03:57;;;;;;;7.18;6.45;;;24.50;73.40;;;;;;5106255;28;20530;-57
2021/06/14 07:06:23;;;;;;;7.65;6.70;;;24.50;72.90;;;;;;5094869;28;20024;-57
2021/06/14 07:08:49;;;;;;;8.40;7.32;;;24.50;72.90;;;;;;5098668;28;20138;-55
2021/06/14 07:11:14;;;;;;;9.23;7.35;;;24.40;72.90;;;;;;5102393;28;20106;-58
2021/06/14 07:13:40;;;;;;;7.68;6.88;;;24.40;72.60;;;;;;5103700;28;20024;-57
2021/06/14 07:16:05;;;;;;;7.88;6.78;;;24.40;73.00;;;;;;5098545;28;20665;-57
2021/06/14 07:18:32;;;;;;;7.45;6.65;;;24.30;73.20;;;;;;5091298;28;20043;-57
2021/06/14 07:20:59;;;;;;;7.60;6.80;;;24.30;73.40;;;;;;5098173;28;20211;-57
2021/06/14 07:23:25;;;;;;;8.02;6.78;;;24.30;73.80;;;;;;5101492;28;20051;-57
2021/06/14 07:25:51;;;;;;;7.20;6.50;;;24.30;73.30;;;;;;5098886;28;20035;-58
2021/06/14 07:28:16;;;;;;;9.55;7.00;;;24.30;73.70;;;;;;5099441;28;20482;-57
2021/06/14 07:30:42;;;;;;;10.55;7.03;;;24.30;73.90;;;;;;5092314;28;20050;-60
2021/06/14 07:33:08;;;;;;;7.68;6.88;;;24.30;73.50;;;;;;5100560;28;21898;-58
2021/06/14 07:35:37;;;;;;;8.65;6.80;;;24.30;74.20;;;;;;5104587;28;20055;-59
2021/06/14 07:38:04;;;;;;;7.30;6.57;;;24.30;73.80;;;;;;5104755;28;20042;-59
2021/06/14 07:40:30;;;;;;;7.85;7.05;;;24.30;74.30;;;;;;5099055;28;20784;-58
2021/06/14 07:42:56;;;;;;;8.00;6.30;;;24.30;74.80;;;;;;5095200;28;20451;-58
2021/06/14 07:45:24;;;;;;;9.45;7.30;;;24.30;74.80;;;;;;5101044;28;20130;-58
2021/06/14 07:47:50;;;;;;;8.23;6.90;;;24.30;74.80;;;;;;5097588;28;20023;-57
2021/06/14 07:50:16;;;;;;;8.35;6.53;;;24.30;74.60;;;;;;5094076;28;20052;-57
2021/06/14 07:52:42;;;;;;;7.82;6.75;;;24.30;74.00;;;;;;5101213;28;20028;-57
2021/06/14 07:55:09;;;;;;;7.38;6.55;;;24.20;74.70;;;;;;5098116;28;20039;-57
2021/06/14 07:57:35;;;;;;;8.27;6.43;;;24.20;74.00;;;;;;5093408;28;20070;-50
2021/06/14 08:00:01;;;;;;;8.05;6.53;;;24.20;74.20;;;;;;5099080;28;20051;-56
2021/06/14 08:02:26;;;;;;;8.98;7.05;;;24.20;74.50;;;;;;5100895;28;20519;-56
2021/06/14 08:04:53;;;;;;;7.75;6.10;;;24.20;74.40;;;;;;5103048;28;20523;-55
2021/06/14 08:07:19;;;;;;;9.57;7.07;;;24.10;74.50;;;;;;5097443;28;20035;-57
2021/06/14 08:09:46;;;;;;;9.20;7.20;;;24.00;75.10;;;;;;5096809;28;20030;-58
2021/06/14 08:12:12;;;;;;;9.52;6.55;;;24.00;76.30;;;;;;5099464;28;20092;-59
2021/06/14 08:14:38;;;;;;;8.77;6.95;;;23.90;76.90;;;;;;5098478;28;20068;-58
2021/06/14 08:17:04;;;;;;;9.30;6.78;;;24.00;76.10;;;;;;5101724;28;20062;-58
2021/06/14 08:19:51;;;;;;;8.38;6.35;;;23.90;75.90;;;;;;5097441;28;20043;-57
2021/06/14 08:25:04;;;;;;;7.75;6.95;;;23.90;75.70;;;;;;5097514;28;20537;-57
2021/06/14 08:27:48;;;;;;;8.10;7.18;;;24.00;76.00;;;;;;5098182;28;20028;-56
2021/06/14 08:30:17;;;;;;;15.75;8.32;;;24.00;75.50;;;;;;5100601;28;20331;-63
2021/06/14 08:32:43;;;;;;;14.65;9.02;;;24.00;75.40;;;;;;5097457;28;20027;-64
2021/06/14 08:35:13;;;;;;;12.07;7.60;;;24.00;75.50;;;;;;5094274;28;20028;-63
2021/06/14 08:37:40;;;;;;;21.83;13.07;;;24.00;75.80;;;;;;5093882;28;20705;-63
2021/06/14 08:40:06;;;;;;;12.15;9.07;;;24.00;75.70;;;;;;5095072;28;20111;-62
2021/06/14 08:42:33;;;;;;;8.43;7.07;;;24.00;76.20;;;;;;5090920;28;20039;-60
2021/06/14 08:44:59;;;;;;;9.25;6.85;;;24.00;75.70;;;;;;5097733;28;20024;-60
2021/06/14 08:47:25;;;;;;;7.82;6.60;;;24.00;75.30;;;;;;5090779;28;20043;-60
2021/06/14 08:49:51;;;;;;;8.20;6.80;;;24.00;75.30;;;;;;5096027;28;20681;-62
2021/06/14 08:52:17;;;;;;;9.55;6.00;;;24.00;75.90;;;;;;5095663;28;20035;-64
2021/06/14 08:54:43;;;;;;;7.22;6.15;;;24.00;75.10;;;;;;5095147;28;20069;-63
2021/06/14 08:57:13;;;;;;;7.18;6.13;;;24.00;75.20;;;;;;5093629;28;20485;-64
2021/06/14 08:59:40;;;;;;;6.45;5.85;;;24.00;75.00;;;;;;5086547;28;20111;-63
2021/06/14 09:02:06;;;;;;;7.28;5.82;;;24.00;74.60;;;;;;5094972;28;20032;-63
2021/06/14 09:04:34;;;;;;;6.13;5.30;;;24.00;74.60;;;;;;5094478;28;20609;-64
2021/06/14 09:07:02;;;;;;;5.97;5.38;;;24.00;74.10;;;;;;5093853;28;20451;-61
2021/06/14 09:09:30;;;;;;;7.22;5.43;;;24.00;74.30;;;;;;5093624;28;20030;-62
2021/06/14 09:11:56;;;;;;;6.22;5.63;;;24.00;74.90;;;;;;5096252;28;20019;-63
2021/06/14 09:14:27;;;;;;;7.25;5.43;;;23.90;74.50;;;;;;5096181;28;20024;-62
2021/06/14 09:17:04;;;;;;;7.90;5.47;;;24.00;74.80;;;;;;5082276;28;20149;-64
2021/06/14 09:19:33;;;;;;;6.78;5.70;;;24.00;75.20;;;;;;5087017;28;21151;-64
2021/06/14 09:22:30;;;;;;;5.68;5.10;;;24.00;75.00;;;;;;5092780;28;20357;-64
2021/06/14 09:25:06;;;;;;;6.50;5.22;;;23.90;74.80;;;;;;5093482;28;20032;-60
2021/06/14 09:27:42;;;;;;;6.03;5.00;;;24.00;75.10;;;;;;5095867;28;20024;-63
2021/06/14 09:30:27;;;;;;;6.68;5.05;;;24.00;75.00;;;;;;5096596;28;20043;-62
2021/06/14 09:33:01;;;;;;;5.72;5.13;;;24.00;74.70;;;;;;5100610;28;20023;-63
2021/06/14 09:35:34;;;;;;;5.72;5.13;;;24.00;74.20;;;;;;5099049;28;20082;-63
2021/06/14 09:38:06;;;;;;;6.68;5.35;;;24.00;74.50;;;;;;5102420;28;20124;-63
2021/06/14 09:41:05;;;;;;;5.80;5.20;;;24.00;74.10;;;;;;5098692;28;20098;-60
2021/06/14 09:43:37;;;;;;;5.10;4.60;;;24.00;73.90;;;;;;5096719;28;20106;-61
2021/06/14 09:46:06;;;;;;;6.80;6.07;;;24.00;73.80;;;;;;5103065;28;20020;-60
2021/06/14 09:48:37;;;;;;;5.97;5.22;;;24.00;73.70;;;;;;5097978;28;20031;-60
2021/06/14 09:51:07;;;;;;;6.05;5.43;;;24.00;73.80;;;;;;5098091;28;20039;-62
2021/06/14 09:53:42;;;;;;;6.40;5.50;;;23.90;74.10;;;;;;5096194;28;20043;-63
2021/06/14 09:56:26;;;;;;;11.10;5.40;;;23.90;74.10;;;;;;5098905;28;20107;-63
2021/06/14 09:58:54;;;;;;;8.68;6.13;;;23.90;73.70;;;;;;5099664;28;20055;-64
2021/06/14 10:01:28;;;;;;;7.20;5.32;;;23.90;73.60;;;;;;5096489;28;20047;-64
2021/06/14 10:03:56;;;;;;;9.05;5.45;;;23.90;73.40;;;;;;5091381;28;20030;-63
2021/06/14 10:06:49;;;;;;;6.43;5.18;;;23.90;73.30;;;;;;5101572;28;20481;-64
2021/06/14 10:09:17;;;;;;;5.72;5.15;;;23.90;73.40;;;;;;5096004;28;20065;-64
2021/06/14 10:11:45;;;;;;;6.70;5.32;;;23.90;73.50;;;;;;5101861;28;20039;-64
2021/06/14 10:14:15;;;;;;;6.57;5.10;;;23.90;73.20;;;;;;5100406;28;20027;-64
2021/06/14 10:16:46;;;;;;;6.03;4.95;;;23.90;73.00;;;;;;5104347;28;20028;-64
2021/06/14 10:19:14;;;;;;;5.10;4.50;;;23.80;72.60;;;;;;5100119;28;20093;-64
2021/06/14 10:21:40;;;;;;;7.07;4.95;;;23.90;72.40;;;;;;5101682;28;20138;-64
2021/06/14 10:24:11;;;;;;;5.40;4.90;;;23.90;72.10;;;;;;5100755;28;20106;-64
2021/06/14 10:26:43;;;;;;;6.25;4.82;;;23.90;72.40;;;;;;5101982;28;20417;-64
2021/06/14 10:29:14;;;;;;;5.55;4.93;;;23.90;72.20;;;;;;5100232;28;20024;-64
2021/06/14 10:31:48;;;;;;;6.50;4.80;;;23.90;72.30;;;;;;5102842;28;20432;-64
2021/06/14 10:34:16;;;;;;;5.35;4.75;;;23.90;72.00;;;;;;5100201;28;20038;-64
2021/06/14 10:36:48;;;;;;;5.82;4.65;;;23.90;72.40;;;;;;5092392;28;21275;-65
2021/06/14 10:39:15;;;;;;;7.05;4.65;;;23.90;71.90;;;;;;5101410;28;20028;-65
2021/06/14 10:41:43;;;;;;;5.22;4.72;;;23.90;71.90;;;;;;5094281;28;20144;-65
2021/06/14 10:44:09;;;;;;;5.95;4.40;;;23.90;71.80;;;;;;5099625;28;20023;-65
2021/06/14 10:46:35;;;;;;;5.10;4.57;;;23.90;71.80;;;;;;5106675;28;20911;-64
2021/06/14 10:49:02;;;;;;;4.97;4.47;;;23.90;71.90;;;;;;5108287;28;20027;-65
2021/06/14 10:51:32;;;;;;;5.20;4.70;;;23.90;72.00;;;;;;5103963;28;20030;-64
2021/06/14 10:54:09;;;;;;;4.65;4.25;;;23.90;71.90;;;;;;5095854;28;20756;-65
2021/06/14 10:56:38;;;;;;;4.38;3.90;;;24.00;71.40;;;;;;5099727;28;20352;-65
2021/06/14 10:59:06;;;;;;;4.90;4.30;;;24.00;71.00;;;;;;5101947;27;20039;-64
2021/06/14 11:01:44;;;;;;;5.47;4.90;;;24.00;70.70;;;;;;5099522;28;20125;-64
2021/06/14 11:04:21;;;;;;;5.75;4.25;;;24.00;70.90;;;;;;5097048;28;20022;-64
2021/06/14 11:06:52;;;;;;;6.25;4.53;;;24.00;70.50;;;;;;5101565;28;20024;-64
2021/06/14 11:09:18;;;;;;;5.13;4.40;;;23.90;70.80;;;;;;5095936;28;20028;-64
2021/06/14 11:11:55;;;;;;;4.93;4.43;;;24.00;71.50;;;;;;5101884;28;20039;-65
2021/06/14 11:14:44;;;;;;;4.95;4.13;;;24.00;71.50;;;;;;5092621;27;20562;-64
2021/06/14 11:17:17;;;;;;;4.10;3.70;;;24.00;71.00;;;;;;5091616;28;20047;-63
2021/06/14 11:19:49;;;;;;;5.20;4.40;;;24.00;71.70;;;;;;5094923;28;20485;-63
2021/06/14 11:22:17;;;;;;;5.78;3.90;;;24.10;71.00;;;;;;5102153;28;20114;-62
2021/06/14 11:24:45;;;;;;;4.93;3.90;;;24.10;70.50;;;;;;5096018;28;20074;-63
2021/06/14 11:27:12;;;;;;;4.47;4.07;;;24.10;70.90;;;;;;5093585;28;20057;-63
2021/06/14 11:29:49;;;;;;;4.47;3.80;;;24.10;71.10;;;;;;5100497;28;20055;-63
2021/06/14 11:32:19;;;;;;;4.70;4.22;;;24.20;71.00;;;;;;5098358;28;20129;-62
2021/06/14 11:34:47;;;;;;;4.45;4.05;;;24.20;71.00;;;;;;5097598;28;20024;-62
2021/06/14 11:37:14;;;;;;;5.03;3.65;;;24.20;71.50;;;;;;5103141;28;20020;-60
2021/06/14 11:39:40;;;;;;;5.60;3.70;;;24.20;71.20;;;;;;5101180;28;20023;-63
2021/06/14 11:42:14;;;;;;;3.63;3.33;;;24.20;70.80;;;;;;5103431;28;20479;-64
2021/06/14 11:45:19;;;;;;;5.82;3.85;;;24.30;70.60;;;;;;5095859;28;20422;-64
2021/06/14 11:47:45;;;;;;;4.75;4.25;;;24.30;70.20;;;;;;5081263;28;20071;-63
2021/06/14 11:50:11;;;;;;;4.15;3.35;;;24.30;70.30;;;;;;5085164;28;20139;-63
2021/06/14 11:52:38;;;;;;;4.28;3.75;;;24.30;70.20;;;;;;5097365;28;20077;-64
2021/06/14 11:55:12;;;;;;;4.82;3.67;;;24.30;70.50;;;;;;5096070;27;20024;-58
2021/06/14 11:57:43;;;;;;;3.85;3.45;;;24.30;70.80;;;;;;5104165;28;20034;-58
2021/06/14 12:00:14;;;;;;;4.40;3.50;;;24.30;70.30;;;;;;5103961;28;20024;-59
2021/06/14 12:02:40;;;;;;;4.40;4.00;;;24.20;70.00;;;;;;5096896;28;20075;-55
2021/06/14 12:05:08;;;;;;;4.18;3.78;;;24.20;70.50;;;;;;5102205;28;20024;-57
2021/06/14 12:07:38;;;;;;;3.88;3.53;;;24.20;70.50;;;;;;5100435;28;20514;-57
2021/06/14 12:10:10;;;;;;;4.40;4.00;;;24.30;70.50;;;;;;5091399;28;20046;-57
2021/06/14 12:12:37;;;;;;;4.82;3.42;;;24.20;70.60;;;;;;5098722;28;20112;-56
2021/06/14 12:15:04;;;;;;;6.43;3.50;;;24.20;70.70;;;;;;5098866;28;20058;-57
2021/06/14 12:17:33;;;;;;;4.20;3.80;;;24.20;70.10;;;;;;5094502;28;20039;-56
2021/06/14 12:20:00;;;;;;;5.00;3.60;;;24.20;69.90;;;;;;5099748;28;20024;-55
2021/06/14 12:22:28;;;;;;;4.07;3.67;;;24.30;69.80;;;;;;5098915;28;20024;-56
2021/06/14 12:24:59;;;;;;;4.20;3.80;;;24.20;69.80;;;;;;5091326;28;20077;-56
2021/06/14 12:27:26;;;;;;;4.63;3.85;;;24.30;70.50;;;;;;5094628;28;20027;-56
2021/06/14 12:30:00;;;;;;;5.07;3.50;;;24.30;70.50;;;;;;5092707;28;20108;-54
2021/06/14 12:32:29;;;;;;;5.00;4.25;;;24.30;70.30;;;;;;5095859;28;21258;-54
2021/06/14 12:34:59;;;;;;;5.00;4.00;;;24.30;69.90;;;;;;5097581;28;20035;-55
2021/06/14 12:37:25;;;;;;;5.18;4.57;;;24.30;69.80;;;;;;5097259;28;20032;-55
2021/06/14 12:40:07;;;;;;;4.35;3.95;;;24.30;69.60;;;;;;5092800;28;20019;-57
2021/06/14 12:42:34;;;;;;;5.43;3.60;;;24.30;69.10;;;;;;5096007;28;20907;-58
2021/06/14 12:45:00;;;;;;;6.93;4.10;;;24.30;69.20;;;;;;5093570;28;20103;-58
2021/06/14 12:47:27;;;;;;;4.35;3.90;;;24.40;69.80;;;;;;5095993;28;20039;-57
2021/06/14 12:49:54;;;;;;;3.80;3.40;;;24.30;69.30;;;;;;5094589;28;20022;-55
2021/06/14 12:52:22;;;;;;;4.00;3.40;;;24.40;68.60;;;;;;5095484;28;20036;-56
2021/06/14 12:54:48;;;;;;;3.22;2.92;;;24.40;67.80;;;;;;5092279;28;20036;-55